Time;durP1;ratioP1;P1;durP2;ratioP2;P2;SDS_P1;SDS_P2;PMS_P1;PMS_P2;Temp;Humidity;BMP_temperature;BMP_pressure;BME280_temperature;BME280_humidity;BME280_pressure;Samples;Min_cycle;Max_cycle;Signal;HPM_P1;HPM_P2
2023/03/18 00:01:06;;;;;;;8.85;5.15;;;;;;;;;;5049849;28;20053;-76
2023/03/18 00:03:33;;;;;;;15.07;6.30;;;;;;;;;;5049856;28;20025;-78
2023/03/18 00:06:05;;;;;;;12.00;5.22;;;;;;;;;;5049752;28;20029;-75
2023/03/18 00:08:31;;;;;;;10.55;5.60;;;;;;;;;;5050600;28;20463;-76
2023/03/18 00:10:58;;;;;;;11.82;5.30;;;;;;;;;;5051336;28;20025;-76
2023/03/18 00:13:24;;;;;;;12.05;5.82;;;;;;;;;;5050999;28;20077;-76
2023/03/18 00:15:51;;;;;;;10.25;5.68;;;;;;;;;;5037956;28;20033;-74
2023/03/18 00:18:17;;;;;;;12.02;6.20;;;;;;;;;;5025932;28;20029;-78
2023/03/18 00:20:44;;;;;;;10.60;5.10;;;;;;;;;;5043164;28;20026;-74
2023/03/18 00:23:10;;;;;;;13.40;5.80;;;;;;;;;;5053122;27;20025;-74
2023/03/18 00:25:37;;;;;;;7.72;5.35;;;;;;;;;;5068118;28;20051;-75
2023/03/18 00:28:05;;;;;;;11.75;5.72;;;;;;;;;;5067679;28;20051;-76
2023/03/18 00:30:31;;;;;;;11.82;5.20;;;;;;;;;;5072929;28;20023;-77
2023/03/18 00:32:57;;;;;;;10.77;5.35;;;;;;;;;;5072676;28;20025;-75
2023/03/18 00:35:26;;;;;;;13.70;6.25;;;;;;;;;;5066858;28;20025;-77
2023/03/18 00:37:54;;;;;;;10.05;5.30;;;;;;;;;;5068605;28;20040;-75
2023/03/18 00:40:26;;;;;;;8.93;5.10;;;;;;;;;;5049764;28;20050;-75
2023/03/18 00:43:00;;;;;;;10.05;4.80;;;;;;;;;;5049942;28;20105;-75
2023/03/18 00:45:26;;;;;;;9.85;5.68;;;;;;;;;;5049330;28;20056;-74
2023/03/18 00:47:53;;;;;;;9.15;5.07;;;;;;;;;;5049043;28;20049;-77
2023/03/18 00:50:19;;;;;;;9.02;5.45;;;;;;;;;;5049276;28;20430;-78
2023/03/18 00:52:45;;;;;;;11.27;6.18;;;;;;;;;;5049332;28;20509;-78
2023/03/18 00:55:11;;;;;;;9.20;5.28;;;;;;;;;;5049249;28;20039;-74
2023/03/18 00:57:37;;;;;;;8.15;5.13;;;;;;;;;;5048793;28;20061;-74
2023/03/18 01:00:06;;;;;;;18.38;5.22;;;;;;;;;;5049367;28;20336;-75
2023/03/18 01:02:32;;;;;;;8.45;4.90;;;;;;;;;;5048776;28;20021;-76
2023/03/18 01:04:58;;;;;;;9.32;5.25;;;;;;;;;;5048681;28;20032;-74
2023/03/18 01:07:25;;;;;;;13.77;5.38;;;;;;;;;;5048676;28;20021;-74
2023/03/18 01:09:51;;;;;;;9.43;4.82;;;;;;;;;;5048966;28;20029;-74
2023/03/18 01:12:17;;;;;;;10.20;5.90;;;;;;;;;;5048753;28;20029;-74
2023/03/18 01:14:43;;;;;;;10.15;5.10;;;;;;;;;;5040908;28;20033;-74
2023/03/18 01:17:09;;;;;;;10.35;5.35;;;;;;;;;;5010622;28;20380;-73
2023/03/18 01:19:36;;;;;;;9.48;4.80;;;;;;;;;;5032801;27;20483;-73
2023/03/18 01:22:03;;;;;;;11.02;5.75;;;;;;;;;;5023309;28;20025;-74
2023/03/18 01:24:29;;;;;;;9.38;5.50;;;;;;;;;;5046738;28;20489;-74
2023/03/18 01:26:55;;;;;;;11.55;5.15;;;;;;;;;;5043865;28;20624;-75
2023/03/18 01:29:22;;;;;;;9.82;5.82;;;;;;;;;;5042865;28;20029;-74
2023/03/18 01:31:50;;;;;;;12.40;5.30;;;;;;;;;;5048550;28;20033;-74
2023/03/18 01:34:16;;;;;;;9.45;4.85;;;;;;;;;;5043582;28;20021;-77
2023/03/18 01:36:42;;;;;;;8.75;4.80;;;;;;;;;;5031969;28;20083;-76
2023/03/18 01:39:09;;;;;;;12.02;5.30;;;;;;;;;;5032093;28;20025;-76
2023/03/18 01:41:35;;;;;;;8.38;5.03;;;;;;;;;;5032374;28;20014;-78
2023/03/18 01:44:03;;;;;;;9.38;5.15;;;;;;;;;;5049696;28;20482;-77
2023/03/18 01:46:37;;;;;;;10.98;5.32;;;;;;;;;;5051434;28;20058;-77
2023/03/18 01:49:05;;;;;;;13.05;5.75;;;;;;;;;;5051551;28;20716;-76
2023/03/18 01:51:31;;;;;;;11.18;5.47;;;;;;;;;;5052069;28;20025;-75
2023/03/18 01:53:59;;;;;;;8.25;5.20;;;;;;;;;;5052184;28;20073;-74
2023/03/18 01:56:25;;;;;;;14.05;5.05;;;;;;;;;;5051459;28;20032;-76
2023/03/18 01:58:53;;;;;;;13.80;5.60;;;;;;;;;;5051381;28;20025;-76
2023/03/18 02:01:26;;;;;;;10.38;5.63;;;;;;;;;;5051855;28;20309;-76
2023/03/18 02:03:53;;;;;;;9.45;5.45;;;;;;;;;;5051648;28;20027;-76
2023/03/18 02:06:19;;;;;;;10.80;5.05;;;;;;;;;;5051466;28;20032;-76
2023/03/18 02:08:45;;;;;;;10.88;4.95;;;;;;;;;;5051630;27;20021;-76
2023/03/18 02:11:12;;;;;;;14.40;5.43;;;;;;;;;;5051636;28;20032;-75
2023/03/18 02:13:40;;;;;;;12.75;5.32;;;;;;;;;;5033680;28;20553;-76
2023/03/18 02:16:09;;;;;;;12.30;5.30;;;;;;;;;;5032083;28;20062;-76
2023/03/18 02:18:37;;;;;;;11.90;4.97;;;;;;;;;;5031304;28;20545;-76
2023/03/18 02:21:36;;;;;;;9.50;5.35;;;;;;;;;;5031669;28;20044;-75
2023/03/18 02:24:27;;;;;;;9.70;4.85;;;;;;;;;;5021144;28;20029;-78
2023/03/18 02:27:02;;;;;;;10.85;4.88;;;;;;;;;;5031442;28;20081;-76
2023/03/18 02:29:30;;;;;;;11.80;5.80;;;;;;;;;;5013613;28;20030;-78
2023/03/18 02:31:56;;;;;;;11.13;5.20;;;;;;;;;;5031298;28;20117;-77
2023/03/18 02:34:26;;;;;;;10.23;4.82;;;;;;;;;;5041960;28;20035;-77
2023/03/18 02:36:52;;;;;;;9.30;4.95;;;;;;;;;;5051109;28;20064;-77
2023/03/18 02:39:18;;;;;;;8.90;4.82;;;;;;;;;;5050897;28;20017;-77
2023/03/18 02:41:44;;;;;;;9.27;5.15;;;;;;;;;;5033292;28;20033;-77
2023/03/18 02:44:11;;;;;;;11.32;5.50;;;;;;;;;;5050606;28;20025;-77
2023/03/18 02:46:49;;;;;;;9.50;4.93;;;;;;;;;;5050926;28;20028;-75
2023/03/18 02:49:16;;;;;;;9.02;5.30;;;;;;;;;;5033009;28;20036;-76
2023/03/18 02:51:43;;;;;;;9.57;5.38;;;;;;;;;;5033053;28;20161;-77
2023/03/18 02:54:13;;;;;;;11.25;5.35;;;;;;;;;;5050893;28;20100;-76
2023/03/18 02:56:41;;;;;;;11.33;5.43;;;;;;;;;;5050727;28;20033;-75
2023/03/18 02:59:07;;;;;;;13.35;5.55;;;;;;;;;;5050384;28;20029;-76
2023/03/18 03:01:33;;;;;;;10.65;4.95;;;;;;;;;;5050784;28;20598;-77
2023/03/18 03:04:00;;;;;;;9.68;4.88;;;;;;;;;;5050635;28;20118;-75
2023/03/18 03:06:26;;;;;;;9.32;5.55;;;;;;;;;;5050937;28;20124;-75
2023/03/18 03:08:52;;;;;;;11.07;5.55;;;;;;;;;;5050469;28;20017;-75
2023/03/18 03:11:18;;;;;;;11.85;6.07;;;;;;;;;;5050852;28;20025;-75
2023/03/18 03:13:44;;;;;;;9.98;5.57;;;;;;;;;;5050875;28;20378;-76
2023/03/18 03:16:11;;;;;;;10.02;4.80;;;;;;;;;;5050250;28;20036;-75
2023/03/18 03:18:37;;;;;;;10.48;5.30;;;;;;;;;;5050070;28;20040;-76
2023/03/18 03:21:03;;;;;;;11.98;5.13;;;;;;;;;;5050501;28;20036;-74
2023/03/18 03:23:30;;;;;;;10.23;5.47;;;;;;;;;;5050324;28;20025;-76
2023/03/18 03:25:56;;;;;;;9.32;5.00;;;;;;;;;;5050283;28;20074;-75
2023/03/18 03:28:23;;;;;;;10.15;5.53;;;;;;;;;;5050105;28;20017;-75
2023/03/18 03:30:49;;;;;;;9.82;5.15;;;;;;;;;;5050521;28;20088;-75
2023/03/18 03:33:16;;;;;;;11.20;5.82;;;;;;;;;;5048657;28;20017;-75
2023/03/18 03:35:42;;;;;;;9.30;5.47;;;;;;;;;;5030613;28;20018;-78
2023/03/18 03:38:08;;;;;;;10.88;5.45;;;;;;;;;;5030361;28;20028;-77
2023/03/18 03:40:34;;;;;;;7.18;5.10;;;;;;;;;;5030488;28;20568;-77
2023/03/18 03:43:00;;;;;;;8.88;5.07;;;;;;;;;;5030247;28;20108;-77
2023/03/18 03:45:27;;;;;;;10.60;5.25;;;;;;;;;;5030334;28;20041;-76
2023/03/18 03:47:53;;;;;;;9.43;4.90;;;;;;;;;;5029683;28;20422;-77
2023/03/18 03:50:20;;;;;;;8.90;5.32;;;;;;;;;;5030505;28;20026;-75
2023/03/18 03:52:46;;;;;;;8.18;5.38;;;;;;;;;;5030164;28;20386;-75
2023/03/18 03:55:13;;;;;;;9.70;4.95;;;;;;;;;;5030203;28;20025;-75
2023/03/18 03:57:41;;;;;;;10.55;5.22;;;;;;;;;;5028694;28;20566;-76
2023/03/18 04:00:12;;;;;;;11.98;5.32;;;;;;;;;;5029937;28;20026;-76
2023/03/18 04:02:38;;;;;;;8.23;4.75;;;;;;;;;;5029935;28;20495;-76
2023/03/18 04:05:04;;;;;;;12.40;5.47;;;;;;;;;;5030161;28;20033;-76
2023/03/18 04:07:30;;;;;;;10.30;5.45;;;;;;;;;;5029824;28;20033;-76
2023/03/18 04:09:56;;;;;;;9.95;5.18;;;;;;;;;;5012278;28;20029;-76
2023/03/18 04:12:22;;;;;;;10.60;5.03;;;;;;;;;;5030443;28;20387;-75
2023/03/18 04:14:48;;;;;;;8.45;4.85;;;;;;;;;;5020401;28;20025;-76
2023/03/18 04:17:15;;;;;;;9.48;5.30;;;;;;;;;;5049259;28;20573;-76
2023/03/18 04:19:41;;;;;;;9.02;5.18;;;;;;;;;;5049607;28;20025;-76
2023/03/18 04:22:08;;;;;;;11.40;5.28;;;;;;;;;;5049538;28;20517;-75
2023/03/18 04:24:34;;;;;;;10.93;5.35;;;;;;;;;;5049436;28;20017;-76
2023/03/18 04:27:00;;;;;;;9.80;5.05;;;;;;;;;;5049360;28;20112;-74
2023/03/18 04:29:26;;;;;;;6.93;4.53;;;;;;;;;;5049296;28;20057;-76
2023/03/18 04:31:53;;;;;;;10.25;5.50;;;;;;;;;;5049607;28;20036;-75
2023/03/18 04:34:19;;;;;;;11.00;6.03;;;;;;;;;;5049234;28;20060;-75
2023/03/18 04:36:46;;;;;;;11.82;5.47;;;;;;;;;;5049527;28;20081;-76
2023/03/18 04:39:12;;;;;;;9.98;5.72;;;;;;;;;;5031178;28;20112;-74
2023/03/18 04:41:38;;;;;;;9.63;5.10;;;;;;;;;;5049348;28;20052;-75
2023/03/18 04:44:04;;;;;;;9.90;5.57;;;;;;;;;;5049122;27;20021;-75
2023/03/18 04:46:31;;;;;;;10.73;5.15;;;;;;;;;;5049576;28;20112;-75
2023/03/18 04:48:57;;;;;;;11.88;5.43;;;;;;;;;;5048871;28;20021;-75
2023/03/18 04:51:24;;;;;;;10.45;5.20;;;;;;;;;;5049388;28;20029;-75
2023/03/18 04:53:50;;;;;;;13.15;5.18;;;;;;;;;;5031323;28;20097;-76
2023/03/18 04:56:16;;;;;;;11.75;5.97;;;;;;;;;;5048895;28;20029;-76
2023/03/18 04:58:42;;;;;;;8.45;5.10;;;;;;;;;;5030602;28;20057;-76
2023/03/18 05:01:08;;;;;;;13.13;5.93;;;;;;;;;;5049068;28;20104;-76
2023/03/18 05:03:35;;;;;;;11.45;5.68;;;;;;;;;;5031001;28;20032;-76
2023/03/18 05:06:01;;;;;;;10.57;5.38;;;;;;;;;;5048945;28;20085;-76
2023/03/18 05:08:27;;;;;;;12.07;5.90;;;;;;;;;;5048240;28;20078;-76
2023/03/18 05:10:53;;;;;;;9.07;5.25;;;;;;;;;;5048913;28;20409;-76
2023/03/18 05:13:19;;;;;;;10.95;5.47;;;;;;;;;;5048727;27;20490;-76
2023/03/18 05:15:45;;;;;;;14.43;5.65;;;;;;;;;;5032083;28;20567;-76
2023/03/18 05:18:13;;;;;;;11.15;5.60;;;;;;;;;;5028574;28;20046;-77
2023/03/18 05:20:39;;;;;;;13.60;5.88;;;;;;;;;;5028811;28;20530;-76
2023/03/18 05:23:05;;;;;;;10.30;5.72;;;;;;;;;;5028758;28;20462;-75
2023/03/18 05:25:32;;;;;;;12.32;5.25;;;;;;;;;;5028778;28;20057;-76
2023/03/18 05:27:58;;;;;;;9.27;4.97;;;;;;;;;;5088719;27;20019;-73
2023/03/18 05:30:24;;;;;;;11.95;5.05;;;;;;;;;;5153183;27;20042;-74
2023/03/18 05:32:50;;;;;;;10.63;5.30;;;;;;;;;;5153406;27;20396;-73
2023/03/18 05:35:16;;;;;;;8.57;5.47;;;;;;;;;;5057491;27;20060;-75
2023/03/18 05:37:42;;;;;;;12.48;5.50;;;;;;;;;;5048331;28;20029;-74
2023/03/18 05:40:10;;;;;;;8.23;5.13;;;;;;;;;;5048562;28;20017;-74
2023/03/18 05:42:36;;;;;;;9.23;5.00;;;;;;;;;;5031279;28;20025;-74
2023/03/18 05:45:03;;;;;;;12.13;5.53;;;;;;;;;;5048913;28;20039;-77
2023/03/18 05:47:29;;;;;;;12.30;5.47;;;;;;;;;;5048276;28;20040;-78
2023/03/18 05:49:55;;;;;;;9.82;5.00;;;;;;;;;;5048428;28;20028;-76
2023/03/18 05:52:21;;;;;;;8.75;5.18;;;;;;;;;;5048985;28;20029;-73
2023/03/18 05:54:49;;;;;;;10.80;5.30;;;;;;;;;;5056467;28;20032;-76
2023/03/18 05:57:15;;;;;;;9.90;5.40;;;;;;;;;;5060933;28;20021;-76
2023/03/18 05:59:41;;;;;;;12.02;4.90;;;;;;;;;;5059704;28;20079;-76
2023/03/18 06:02:07;;;;;;;11.68;5.30;;;;;;;;;;5058370;28;20494;-75
2023/03/18 06:04:33;;;;;;;11.85;5.55;;;;;;;;;;5033577;28;20036;-75
2023/03/18 06:07:00;;;;;;;10.13;4.80;;;;;;;;;;5051002;28;20032;-77
2023/03/18 06:09:26;;;;;;;7.57;4.90;;;;;;;;;;5050398;28;20413;-75
2023/03/18 06:11:53;;;;;;;9.27;5.55;;;;;;;;;;5051148;28;20093;-76
2023/03/18 06:14:19;;;;;;;9.93;5.32;;;;;;;;;;5045715;28;20025;-75
2023/03/18 06:16:45;;;;;;;9.75;5.05;;;;;;;;;;5031534;28;20037;-76
2023/03/18 06:19:11;;;;;;;14.52;5.50;;;;;;;;;;5020420;28;20017;-75
2023/03/18 06:21:40;;;;;;;10.23;5.13;;;;;;;;;;5038354;28;20117;-76
2023/03/18 06:24:07;;;;;;;10.02;5.25;;;;;;;;;;5032194;28;20029;-76
2023/03/18 06:26:33;;;;;;;11.68;4.95;;;;;;;;;;5031585;28;20064;-74
2023/03/18 06:28:59;;;;;;;12.88;5.65;;;;;;;;;;5031046;28;20024;-75
2023/03/18 06:31:26;;;;;;;11.05;5.60;;;;;;;;;;5031562;28;20017;-75
2023/03/18 06:33:52;;;;;;;9.07;5.22;;;;;;;;;;5037811;28;20408;-75
2023/03/18 06:36:18;;;;;;;11.85;5.32;;;;;;;;;;5051075;28;20065;-76
2023/03/18 06:38:44;;;;;;;13.18;5.95;;;;;;;;;;5050737;28;20077;-75
2023/03/18 06:41:12;;;;;;;10.43;5.88;;;;;;;;;;5122542;27;20122;-74
2023/03/18 06:43:38;;;;;;;9.40;5.00;;;;;;;;;;5156121;27;20019;-76
2023/03/18 06:46:04;;;;;;;11.55;5.65;;;;;;;;;;5156082;27;20034;-76
2023/03/18 06:48:31;;;;;;;12.07;5.95;;;;;;;;;;5155798;27;20026;-76
2023/03/18 06:50:58;;;;;;;10.15;5.80;;;;;;;;;;5140089;27;20518;-76
2023/03/18 06:53:25;;;;;;;8.60;5.53;;;;;;;;;;5030767;28;20056;-75
2023/03/18 06:55:52;;;;;;;10.88;6.25;;;;;;;;;;5013095;28;20040;-76
2023/03/18 06:58:18;;;;;;;16.85;6.88;;;;;;;;;;5030653;28;20042;-76
2023/03/18 07:00:46;;;;;;;13.75;6.20;;;;;;;;;;5030814;28;20044;-76
2023/03/18 07:03:14;;;;;;;11.50;5.93;;;;;;;;;;5030826;28;20022;-76
2023/03/18 07:05:41;;;;;;;12.32;5.88;;;;;;;;;;5030805;28;20026;-76
2023/03/18 07:08:07;;;;;;;11.73;5.47;;;;;;;;;;5030417;28;20017;-75
2023/03/18 07:10:33;;;;;;;8.43;5.30;;;;;;;;;;5030755;28;20021;-76
2023/03/18 07:13:00;;;;;;;9.25;5.50;;;;;;;;;;5031020;28;20025;-76
2023/03/18 07:15:27;;;;;;;10.23;5.43;;;;;;;;;;5044187;28;20035;-76
2023/03/18 07:17:53;;;;;;;12.40;5.32;;;;;;;;;;5050384;28;20585;-73
2023/03/18 07:20:21;;;;;;;9.45;5.63;;;;;;;;;;5043094;28;20448;-76
2023/03/18 07:22:47;;;;;;;8.55;5.65;;;;;;;;;;5048015;28;20428;-74
2023/03/18 07:25:14;;;;;;;10.85;5.63;;;;;;;;;;5043647;28;20059;-74
2023/03/18 07:27:41;;;;;;;10.43;5.70;;;;;;;;;;5050260;28;20104;-74
2023/03/18 07:30:10;;;;;;;10.93;6.18;;;;;;;;;;5050434;28;20025;-74
2023/03/18 07:32:37;;;;;;;9.80;5.43;;;;;;;;;;5045848;28;20044;-76
2023/03/18 07:35:04;;;;;;;9.73;5.40;;;;;;;;;;5028561;28;20053;-75
2023/03/18 07:37:31;;;;;;;8.18;5.00;;;;;;;;;;5027897;28;20021;-79
2023/03/18 07:39:57;;;;;;;11.18;5.13;;;;;;;;;;5028586;28;20030;-76
2023/03/18 07:42:23;;;;;;;11.68;5.82;;;;;;;;;;5040139;28;20036;-75
2023/03/18 07:44:49;;;;;;;10.30;5.63;;;;;;;;;;5031014;28;20021;-75
2023/03/18 07:47:15;;;;;;;10.05;6.25;;;;;;;;;;5048628;28;20498;-76
2023/03/18 07:49:41;;;;;;;11.13;4.82;;;;;;;;;;5050236;28;20033;-77
2023/03/18 07:52:07;;;;;;;9.73;5.20;;;;;;;;;;5032062;28;20028;-74
2023/03/18 07:54:34;;;;;;;10.98;5.78;;;;;;;;;;5049986;28;20051;-76
2023/03/18 07:57:00;;;;;;;11.98;5.45;;;;;;;;;;5031648;28;20028;-73
2023/03/18 07:59:26;;;;;;;10.68;5.78;;;;;;;;;;5038338;28;20024;-75
2023/03/18 08:01:52;;;;;;;8.35;5.50;;;;;;;;;;5030089;28;20029;-75
2023/03/18 08:04:18;;;;;;;11.48;5.32;;;;;;;;;;5030012;28;20109;-76
2023/03/18 08:06:45;;;;;;;11.75;5.47;;;;;;;;;;5011875;28;20526;-75
2023/03/18 08:09:11;;;;;;;13.00;5.50;;;;;;;;;;5029893;28;20025;-75
2023/03/18 08:11:37;;;;;;;7.78;5.50;;;;;;;;;;5012037;28;20044;-75
2023/03/18 08:14:03;;;;;;;8.98;5.60;;;;;;;;;;5014382;28;20399;-76
2023/03/18 08:16:29;;;;;;;11.32;5.32;;;;;;;;;;5049677;28;20029;-75
2023/03/18 08:18:55;;;;;;;8.10;5.30;;;;;;;;;;5049371;28;20052;-73
2023/03/18 08:21:21;;;;;;;10.35;5.43;;;;;;;;;;5049740;28;20368;-76
2023/03/18 08:23:47;;;;;;;8.85;5.43;;;;;;;;;;5049358;28;20054;-75
2023/03/18 08:26:13;;;;;;;10.38;5.07;;;;;;;;;;5049725;28;20583;-76
2023/03/18 08:28:40;;;;;;;10.50;5.20;;;;;;;;;;5049292;28;20030;-75
2023/03/18 08:31:08;;;;;;;8.93;5.57;;;;;;;;;;5049450;28;20029;-76
2023/03/18 08:33:35;;;;;;;15.05;5.75;;;;;;;;;;5020041;28;20063;-76
2023/03/18 08:36:01;;;;;;;10.55;5.72;;;;;;;;;;5029553;28;20025;-76
2023/03/18 08:38:27;;;;;;;12.63;5.50;;;;;;;;;;5029491;28;20026;-74
2023/03/18 08:40:53;;;;;;;10.38;5.57;;;;;;;;;;5029287;28;20394;-76
2023/03/18 08:43:21;;;;;;;10.80;6.07;;;;;;;;;;5028831;28;20022;-76
2023/03/18 08:45:50;;;;;;;8.10;5.47;;;;;;;;;;5029331;28;20428;-75
2023/03/18 08:48:16;;;;;;;9.68;5.90;;;;;;;;;;5029152;28;20129;-74
2023/03/18 08:50:42;;;;;;;10.02;5.47;;;;;;;;;;5029611;28;20679;-73
2023/03/18 08:53:10;;;;;;;11.27;6.00;;;;;;;;;;5011558;28;20534;-75
2023/03/18 08:55:36;;;;;;;9.98;5.85;;;;;;;;;;5029434;28;20437;-76
2023/03/18 08:58:04;;;;;;;11.70;5.10;;;;;;;;;;5029172;28;20078;-76
2023/03/18 09:00:30;;;;;;;11.93;5.80;;;;;;;;;;5029012;28;20056;-76
2023/03/18 09:02:56;;;;;;;10.07;5.20;;;;;;;;;;5029177;28;20075;-77
2023/03/18 09:05:23;;;;;;;12.55;5.90;;;;;;;;;;5028769;28;20054;-75
2023/03/18 09:07:51;;;;;;;10.85;6.28;;;;;;;;;;5029031;28;20440;-77
2023/03/18 09:10:18;;;;;;;8.80;5.05;;;;;;;;;;5029371;28;20555;-77
2023/03/18 09:12:44;;;;;;;11.95;5.25;;;;;;;;;;5029117;28;20027;-77
2023/03/18 09:15:11;;;;;;;10.90;5.60;;;;;;;;;;5040580;28;20021;-68
2023/03/18 09:17:41;;;;;;;9.13;4.60;;;;;;;;;;5048199;28;20518;-75
2023/03/18 09:20:08;;;;;;;9.45;5.50;;;;;;;;;;5048894;28;20085;-75
2023/03/18 09:22:35;;;;;;;7.80;4.97;;;;;;;;;;5048813;28;20108;-75
2023/03/18 09:25:01;;;;;;;14.77;6.07;;;;;;;;;;5048426;28;20025;-76
2023/03/18 09:27:27;;;;;;;10.65;5.47;;;;;;;;;;5048429;28;20317;-75
2023/03/18 09:29:53;;;;;;;8.75;5.53;;;;;;;;;;5048433;28;20112;-75
2023/03/18 09:32:19;;;;;;;10.82;5.03;;;;;;;;;;5047338;28;20036;-75
2023/03/18 09:34:45;;;;;;;9.98;5.80;;;;;;;;;;5011217;28;20182;-74
2023/03/18 09:37:13;;;;;;;8.90;5.43;;;;;;;;;;5029014;28;20546;-75
2023/03/18 09:39:40;;;;;;;8.13;5.43;;;;;;;;;;5028752;28;20106;-72
2023/03/18 09:42:16;;;;;;;10.00;5.00;;;;;;;;;;5027223;28;20489;-74
2023/03/18 09:44:42;;;;;;;11.57;5.88;;;;;;;;;;5027985;28;20021;-76
2023/03/18 09:47:23;;;;;;;10.10;5.13;;;;;;;;;;5027644;28;20033;-74
2023/03/18 09:50:08;;;;;;;11.95;5.30;;;;;;;;;;5028006;28;20069;-75
2023/03/18 09:52:34;;;;;;;9.25;5.63;;;;;;;;;;5028104;28;20129;-76
2023/03/18 09:55:03;;;;;;;11.10;5.72;;;;;;;;;;5030174;28;20026;-75
2023/03/18 09:57:38;;;;;;;12.05;6.32;;;;;;;;;;5031523;28;20029;-75
2023/03/18 10:00:04;;;;;;;13.27;5.88;;;;;;;;;;5031681;28;20078;-75
2023/03/18 10:02:35;;;;;;;12.57;6.10;;;;;;;;;;5032032;28;20396;-73
2023/03/18 10:05:04;;;;;;;8.93;5.75;;;;;;;;;;5031657;28;20101;-75
2023/03/18 10:07:33;;;;;;;13.52;5.57;;;;;;;;;;5031489;28;20033;-75
2023/03/18 10:10:02;;;;;;;9.13;5.32;;;;;;;;;;5031763;28;20448;-74
2023/03/18 10:12:31;;;;;;;11.57;6.00;;;;;;;;;;5031694;28;20483;-75
2023/03/18 10:15:19;;;;;;;10.77;5.60;;;;;;;;;;5041640;28;20029;-75
2023/03/18 10:17:53;;;;;;;9.25;5.68;;;;;;;;;;5050828;28;20030;-74
2023/03/18 10:20:19;;;;;;;12.27;6.13;;;;;;;;;;5051395;28;20029;-77
2023/03/18 10:22:45;;;;;;;10.25;5.63;;;;;;;;;;5033525;28;20486;-75
2023/03/18 10:25:30;;;;;;;11.20;6.25;;;;;;;;;;5051251;28;20040;-75
2023/03/18 10:27:59;;;;;;;9.95;6.03;;;;;;;;;;5050948;28;20398;-73
2023/03/18 10:30:28;;;;;;;11.30;6.25;;;;;;;;;;5033181;28;20029;-77
2023/03/18 10:33:13;;;;;;;10.23;5.47;;;;;;;;;;5045067;28;20109;-76
2023/03/18 10:35:47;;;;;;;12.27;6.05;;;;;;;;;;5031348;28;20034;-76
2023/03/18 10:38:16;;;;;;;10.40;5.50;;;;;;;;;;5030976;28;20029;-76
2023/03/18 10:40:42;;;;;;;11.55;6.05;;;;;;;;;;5031201;28;20025;-76
2023/03/18 10:43:32;;;;;;;11.50;6.35;;;;;;;;;;5031095;28;20021;-75
2023/03/18 10:46:03;;;;;;;15.60;6.20;;;;;;;;;;5028657;28;20391;-76
2023/03/18 10:48:34;;;;;;;9.43;6.13;;;;;;;;;;5030865;28;20058;-75
2023/03/18 10:51:20;;;;;;;10.95;6.13;;;;;;;;;;5030983;28;20117;-76
2023/03/18 10:53:52;;;;;;;9.65;5.63;;;;;;;;;;5030718;28;20021;-74
2023/03/18 10:56:18;;;;;;;11.70;5.97;;;;;;;;;;5030883;28;20067;-76
2023/03/18 10:58:45;;;;;;;13.45;6.07;;;;;;;;;;5030433;28;20449;-74
2023/03/18 11:01:12;;;;;;;9.00;5.88;;;;;;;;;;5031107;28;20425;-73
2023/03/18 11:03:38;;;;;;;11.40;5.88;;;;;;;;;;5042192;28;20514;-75
2023/03/18 11:06:04;;;;;;;10.68;5.95;;;;;;;;;;5051330;28;20049;-76
2023/03/18 11:08:33;;;;;;;11.63;5.88;;;;;;;;;;5050888;28;20078;-75
2023/03/18 11:11:02;;;;;;;9.50;5.93;;;;;;;;;;5044754;28;20063;-74
2023/03/18 11:13:28;;;;;;;12.57;5.78;;;;;;;;;;5030797;28;20111;-75
2023/03/18 11:15:55;;;;;;;12.52;6.03;;;;;;;;;;5036184;28;20027;-76
2023/03/18 11:18:24;;;;;;;13.25;6.07;;;;;;;;;;5037267;28;20044;-74
2023/03/18 11:20:58;;;;;;;14.30;6.10;;;;;;;;;;5046664;28;20029;-74
2023/03/18 11:23:54;;;;;;;10.20;5.78;;;;;;;;;;5054526;27;20024;-75
2023/03/18 11:26:25;;;;;;;10.90;5.75;;;;;;;;;;5053848;28;20339;-76
2023/03/18 11:28:54;;;;;;;8.73;5.80;;;;;;;;;;5057463;28;20029;-76
2023/03/18 11:31:20;;;;;;;9.23;5.68;;;;;;;;;;5056475;28;20025;-74
2023/03/18 11:33:46;;;;;;;10.80;6.20;;;;;;;;;;5042776;28;20480;-75
2023/03/18 11:36:17;;;;;;;10.68;6.75;;;;;;;;;;5032820;28;20418;-76
2023/03/18 11:38:43;;;;;;;9.73;6.47;;;;;;;;;;5070812;27;20490;-76
2023/03/18 11:41:23;;;;;;;9.20;5.78;;;;;;;;;;5075865;27;20024;-76
2023/03/18 11:44:02;;;;;;;9.02;5.32;;;;;;;;;;5050318;28;20023;-75
2023/03/18 11:46:47;;;;;;;9.75;5.85;;;;;;;;;;5050125;28;20025;-76
2023/03/18 11:49:16;;;;;;;16.33;6.20;;;;;;;;;;5049479;28;20581;-75
2023/03/18 11:51:51;;;;;;;13.48;6.10;;;;;;;;;;5050269;28;20487;-76
2023/03/18 11:54:17;;;;;;;12.55;6.43;;;;;;;;;;5044300;28;20029;-77
2023/03/18 11:56:46;;;;;;;11.23;6.18;;;;;;;;;;5048694;28;20370;-74
2023/03/18 11:59:31;;;;;;;10.63;6.10;;;;;;;;;;5046903;28;20092;-78
2023/03/18 12:02:06;;;;;;;10.70;6.22;;;;;;;;;;5048232;28;20412;-76
2023/03/18 12:04:36;;;;;;;12.50;6.90;;;;;;;;;;5047918;28;20100;-76
2023/03/18 12:07:07;;;;;;;13.63;6.80;;;;;;;;;;5047787;28;20057;-75
2023/03/18 12:09:43;;;;;;;15.40;6.78;;;;;;;;;;5047752;28;20094;-77
2023/03/18 12:12:09;;;;;;;12.10;5.88;;;;;;;;;;5047801;28;20375;-76
2023/03/18 12:14:59;;;;;;;14.00;6.90;;;;;;;;;;5048268;28;20063;-76
2023/03/18 12:17:48;;;;;;;13.32;6.85;;;;;;;;;;5048229;27;20278;-76
2023/03/18 12:20:23;;;;;;;12.35;6.63;;;;;;;;;;5068844;27;20018;-76
2023/03/18 12:22:55;;;;;;;12.52;7.25;;;;;;;;;;5079058;27;20055;-76
2023/03/18 12:25:29;;;;;;;12.23;6.82;;;;;;;;;;5095974;27;20507;-76
2023/03/18 12:27:55;;;;;;;11.15;7.45;;;;;;;;;;5048956;28;20037;-75
2023/03/18 12:30:35;;;;;;;13.27;7.40;;;;;;;;;;5108695;27;20024;-76
2023/03/18 12:33:20;;;;;;;13.25;7.15;;;;;;;;;;5151869;27;20098;-76
2023/03/18 12:35:52;;;;;;;13.07;7.75;;;;;;;;;;5077975;27;20029;-74
2023/03/18 12:38:35;;;;;;;15.45;6.93;;;;;;;;;;5096380;27;20019;-77
2023/03/18 12:41:24;;;;;;;11.23;7.40;;;;;;;;;;5069393;27;20036;-75
2023/03/18 12:44:08;;;;;;;13.60;8.63;;;;;;;;;;5061477;27;20068;-75
2023/03/18 12:46:53;;;;;;;14.32;7.53;;;;;;;;;;5029758;28;20031;-76
2023/03/18 12:49:21;;;;;;;14.18;8.00;;;;;;;;;;5019553;27;20044;-73
2023/03/18 12:51:47;;;;;;;14.93;7.78;;;;;;;;;;5136556;27;20042;-76
2023/03/18 12:54:17;;;;;;;18.13;8.15;;;;;;;;;;5063109;27;20551;-75
2023/03/18 12:56:44;;;;;;;14.02;8.38;;;;;;;;;;5047543;28;20067;-75
2023/03/18 12:59:28;;;;;;;16.08;8.00;;;;;;;;;;5136452;27;20025;-74
2023/03/18 13:01:58;;;;;;;14.10;8.00;;;;;;;;;;5153497;27;20468;-77
2023/03/18 13:04:27;;;;;;;15.38;7.63;;;;;;;;;;5132833;27;20503;-75
2023/03/18 13:07:14;;;;;;;16.77;8.75;;;;;;;;;;5124261;27;20104;-76
2023/03/18 13:09:43;;;;;;;13.02;7.95;;;;;;;;;;5045374;28;20025;-75
2023/03/18 13:12:10;;;;;;;14.10;8.05;;;;;;;;;;5078376;27;20025;-76
2023/03/18 13:14:39;;;;;;;15.05;8.23;;;;;;;;;;5046572;28;20017;-75
2023/03/18 13:17:10;;;;;;;15.32;8.20;;;;;;;;;;5046979;28;20421;-75
2023/03/18 13:19:40;;;;;;;17.40;8.63;;;;;;;;;;5048560;28;20706;-76
2023/03/18 13:22:24;;;;;;;14.73;8.75;;;;;;;;;;5117087;27;20029;-76
2023/03/18 13:24:57;;;;;;;17.60;8.68;;;;;;;;;;5045860;28;20062;-75
2023/03/18 13:27:30;;;;;;;14.38;8.20;;;;;;;;;;5040238;28;20425;-76
2023/03/18 13:30:04;;;;;;;17.33;8.60;;;;;;;;;;5044259;28;20033;-75
2023/03/18 13:32:43;;;;;;;15.32;8.68;;;;;;;;;;5048488;28;20053;-76
2023/03/18 13:35:13;;;;;;;14.20;8.23;;;;;;;;;;5048517;28;20027;-76
2023/03/18 13:37:57;;;;;;;21.17;9.13;;;;;;;;;;5032620;28;20038;-76
2023/03/18 13:40:32;;;;;;;16.38;7.72;;;;;;;;;;5028959;28;20108;-75
2023/03/18 13:43:00;;;;;;;16.27;8.45;;;;;;;;;;5028972;28;20029;-75
2023/03/18 13:45:46;;;;;;;17.50;8.73;;;;;;;;;;5020161;28;20113;-76
2023/03/18 13:48:17;;;;;;;13.90;8.13;;;;;;;;;;5048079;28;20040;-78
2023/03/18 13:50:44;;;;;;;14.98;8.68;;;;;;;;;;5049185;28;20070;-76
2023/03/18 13:53:28;;;;;;;13.38;8.35;;;;;;;;;;5048586;28;20025;-74
2023/03/18 13:55:57;;;;;;;20.92;9.18;;;;;;;;;;5048008;28;20069;-76
2023/03/18 13:58:27;;;;;;;16.42;9.18;;;;;;;;;;5046466;28;20029;-76
2023/03/18 14:00:56;;;;;;;17.88;9.95;;;;;;;;;;5047116;28;20029;-76
2023/03/18 14:03:30;;;;;;;15.75;8.80;;;;;;;;;;5030363;28;20051;-77
2023/03/18 14:06:08;;;;;;;15.23;8.73;;;;;;;;;;5027639;28;20391;-75
2023/03/18 14:08:37;;;;;;;17.63;8.93;;;;;;;;;;5027364;28;20030;-76
2023/03/18 14:11:16;;;;;;;15.57;8.80;;;;;;;;;;5036800;28;20040;-75
2023/03/18 14:13:42;;;;;;;17.17;9.48;;;;;;;;;;5049953;28;20036;-75
2023/03/18 14:16:09;;;;;;;14.70;8.95;;;;;;;;;;5049932;28;20490;-76
2023/03/18 14:18:36;;;;;;;18.27;9.50;;;;;;;;;;5048400;28;20068;-76
2023/03/18 14:21:04;;;;;;;15.95;9.52;;;;;;;;;;5048126;28;20069;-77
2023/03/18 14:23:33;;;;;;;18.80;9.38;;;;;;;;;;5048080;28;20150;-76
2023/03/18 14:26:00;;;;;;;14.00;8.40;;;;;;;;;;5048024;28;20056;-77
2023/03/18 14:28:28;;;;;;;22.25;10.02;;;;;;;;;;5047827;28;20025;-76
2023/03/18 14:30:55;;;;;;;16.50;9.55;;;;;;;;;;5047636;28;20482;-76
2023/03/18 14:33:21;;;;;;;15.57;8.75;;;;;;;;;;5047700;28;20033;-76
2023/03/18 14:36:02;;;;;;;14.88;9.20;;;;;;;;;;5027281;28;20060;-77
2023/03/18 14:38:35;;;;;;;16.88;9.13;;;;;;;;;;5028028;28;20094;-76
2023/03/18 14:41:03;;;;;;;17.63;10.73;;;;;;;;;;5028952;28;20029;-75
2023/03/18 14:43:52;;;;;;;14.10;9.63;;;;;;;;;;5031064;28;20071;-76